Cirencester, United Kingdom
Current Conditions -  °F | °C
As of 2:03 AM on Sunday 26 Oct 2014 (Local Time) from EGVA Reporting Station
Broken Clouds Broken Clouds  
Wind Chill: 54°   Ceiling: 4100
Heat Index: 54°   Visibility: 6mi
Dew Point: 46°   Wind: 12mph
Humidity: 77%   Direction: 230°SW
Pressure: 30.11"   Gusts: NA
Location:  51.72°N, 1.97°W
Report Text: EGVA 260103Z AUTO 23010KT 9999 BKN041 12/08 A3011 RMK AO2
Loading
Personal Weather Stations






























Interactive Weather Map New forecast layout! Learn more

10-Day Weather Forecast

Advertisements
Track Severe Weather on mobile